Hebertville, Canada
Current Conditions -  °F | °C
As of 6:00 PM on Wednesday 22 Oct 2014 (Local Time) from CYRJ Reporting Station
Few Clouds Few Clouds  
Wind Chill: 36°   Ceiling: Unl
Heat Index: 36°   Visibility: 40mi
Dew Point: 32°   Wind: 2mph
Humidity: 87%   Direction: 240°WSW
Pressure: 30.38"   Gusts: NA
Location:  48.4°N, 71.68°W
Report Text: CYRJ 222200Z 24002KT 40SM FEW030 02/M00 A3038 RMK SC1 SC TR SLP299
Loading
Personal Weather Stations






























Interactive Weather Map
Tropical Storm Tracking
New forecast layout! Learn more

10-Day Weather Forecast

Advertisements
Track Severe Weather on mobile